createdAt,value
2019-04-14T00:01:34.772Z,32.65
2019-04-14T00:04:16.081Z,31.42
2019-04-14T00:06:46.309Z,32.60
2019-04-14T00:09:16.291Z,30.80
2019-04-14T00:11:46.434Z,31.33
2019-04-14T00:14:16.350Z,30.45
2019-04-14T00:16:45.254Z,32.75
2019-04-14T00:19:15.149Z,31.60
2019-04-14T00:21:45.364Z,29.87
2019-04-14T00:24:14.413Z,28.98
2019-04-14T00:26:44.449Z,30.97
2019-04-14T00:29:13.477Z,33.40
2019-04-14T00:31:43.327Z,30.55
2019-04-14T00:34:31.410Z,31.57
2019-04-14T00:37:08.432Z,32.13
2019-04-14T00:39:40.108Z,30.97
2019-04-14T00:42:21.211Z,29.45
2019-04-14T00:44:53.893Z,30.20
2019-04-14T00:47:29.515Z,29.55
2019-04-14T00:49:59.403Z,30.02
2019-04-14T00:52:29.688Z,31.87
2019-04-14T00:54:58.794Z,30.52
2019-04-14T00:57:29.037Z,29.98
2019-04-14T00:59:57.924Z,30.43
2019-04-14T01:02:27.551Z,31.60
2019-04-14T01:04:57.690Z,30.65
2019-04-14T01:07:26.651Z,29.98
2019-04-14T01:09:55.510Z,30.10
2019-04-14T01:12:25.676Z,29.67
2019-04-14T01:14:55.919Z,31.85
2019-04-14T01:17:24.935Z,32.40
2019-04-14T01:19:54.807Z,30.92
2019-04-14T01:22:24.906Z,30.82
2019-04-14T01:24:55.273Z,31.50
2019-04-14T01:27:25.549Z,33.18
2019-04-14T01:29:54.498Z,31.17
2019-04-14T01:32:24.071Z,33.03
2019-04-14T01:34:54.311Z,32.10
2019-04-14T01:37:24.766Z,31.35
2019-04-14T01:39:54.583Z,33.35
2019-04-14T01:42:24.554Z,31.30
2019-04-14T01:44:54.540Z,32.85
2019-04-14T01:47:24.592Z,32.60
2019-04-14T01:49:55.091Z,34.15
2019-04-14T01:52:41.993Z,33.35
2019-04-14T01:55:46.229Z,33.20
2019-04-14T01:58:23.579Z,33.48
2019-04-14T02:00:59.656Z,34.10
2019-04-14T02:03:28.526Z,33.73
2019-04-14T02:05:58.290Z,32.28
2019-04-14T02:08:28.417Z,32.48
2019-04-14T02:10:58.507Z,34.18
2019-04-14T02:13:28.958Z,31.97
2019-04-14T02:16:11.141Z,33.20
2019-04-14T02:18:29.568Z,33.75
2019-04-14T02:20:59.878Z,31.37
2019-04-14T02:23:30.089Z,35.15
2019-04-14T02:26:00.089Z,33.75
2019-04-14T02:28:29.014Z,32.10
2019-04-14T02:31:10.294Z,33.25
2019-04-14T02:33:54.064Z,35.05
2019-04-14T02:38:59.020Z,34.10
2019-04-14T02:44:14.007Z,32.42
2019-04-14T02:46:31.905Z,33.10
2019-04-14T02:48:58.712Z,31.90
2019-04-14T02:51:38.529Z,32.83
2019-04-14T02:56:27.950Z,30.08
2019-04-14T02:59:07.713Z,31.52
2019-04-14T03:01:55.356Z,33.40
2019-04-14T03:04:01.472Z,31.20
2019-04-14T03:06:33.850Z,32.53
2019-04-14T03:09:15.343Z,30.75
2019-04-14T03:11:38.081Z,31.52
2019-04-14T03:14:07.988Z,33.88
2019-04-14T03:17:07.564Z,32.78
2019-04-14T03:25:16.696Z,31.82
2019-04-14T03:28:14.400Z,32.10
2019-04-14T03:31:03.982Z,32.17
2019-04-14T03:38:12.807Z,32.05
2019-04-14T03:43:09.855Z,32.38
2019-04-14T03:50:56.167Z,31.40
2019-04-14T03:53:16.965Z,32.78
2019-04-14T03:55:58.766Z,33.98
2019-04-14T03:58:23.179Z,33.02
2019-04-14T04:00:53.212Z,31.42
2019-04-14T04:03:22.230Z,32.67
2019-04-14T04:05:52.080Z,32.70
2019-04-14T04:08:22.326Z,33.60
2019-04-14T04:10:51.842Z,33.08
2019-04-14T04:13:21.834Z,34.03
2019-04-14T04:15:51.890Z,33.23
2019-04-14T04:18:24.149Z,34.00
2019-04-14T04:21:18.415Z,35.25
2019-04-14T04:24:06.504Z,34.00
2019-04-14T04:26:41.337Z,34.45
2019-04-14T04:29:15.474Z,33.40
2019-04-14T04:32:09.952Z,34.40
2019-04-14T04:34:57.898Z,33.88
2019-04-14T04:37:36.858Z,33.58
2019-04-14T04:40:14.294Z,36.23
2019-04-14T04:42:43.685Z,34.80
2019-04-14T04:45:12.863Z,35.45
2019-04-14T04:47:42.669Z,35.60
2019-04-14T04:50:12.797Z,35.20
2019-04-14T04:52:42.865Z,34.15
2019-04-14T04:55:11.900Z,33.85
2019-04-14T04:57:41.583Z,36.17
2019-04-14T05:00:11.499Z,33.88
2019-04-14T05:02:40.309Z,35.30
2019-04-14T05:05:45.105Z,36.13
2019-04-14T05:08:15.160Z,35.88
2019-04-14T05:10:52.780Z,37.35
2019-04-14T05:13:33.458Z,37.70
2019-04-14T05:16:04.202Z,36.65
2019-04-14T05:18:33.581Z,36.48
2019-04-14T05:21:03.859Z,37.15
2019-04-14T05:23:34.114Z,35.90
2019-04-14T05:26:03.094Z,37.33
2019-04-14T05:28:33.163Z,38.10
2019-04-14T05:31:03.253Z,33.18
2019-04-14T05:33:33.530Z,33.60
2019-04-14T05:36:02.695Z,36.73
2019-04-14T05:38:33.768Z,33.78
2019-04-14T05:41:02.743Z,35.25
2019-04-14T05:43:41.536Z,36.65
2019-04-14T05:46:03.392Z,35.45
2019-04-14T05:48:33.635Z,35.13
2019-04-14T05:51:04.088Z,33.08
2019-04-14T05:53:33.062Z,35.33
2019-04-14T05:56:01.922Z,36.30
2019-04-14T05:58:31.706Z,37.98
2019-04-14T06:01:00.666Z,34.63
2019-04-14T06:03:29.947Z,35.55
2019-04-14T06:05:58.937Z,36.08
2019-04-14T06:08:27.797Z,40.63
2019-04-14T06:10:56.614Z,33.80
2019-04-14T06:13:25.435Z,36.28
2019-04-14T06:15:54.311Z,33.10
2019-04-14T06:18:23.119Z,33.42
2019-04-14T06:20:51.890Z,34.60
2019-04-14T06:23:20.674Z,35.88
2019-04-14T06:25:49.466Z,35.43
2019-04-14T06:28:18.246Z,35.60
2019-04-14T06:31:04.147Z,35.38
2019-04-14T06:33:39.067Z,37.48
2019-04-14T06:36:27.071Z,35.43
2019-04-14T06:39:03.395Z,34.53
2019-04-14T06:41:32.221Z,36.65
2019-04-14T06:44:01.262Z,34.63
2019-04-14T06:46:30.043Z,33.98
2019-04-14T06:48:58.930Z,35.25
2019-04-14T06:51:28.070Z,35.10
2019-04-14T06:53:56.920Z,34.15
2019-04-14T06:56:25.811Z,35.52
2019-04-14T06:58:54.611Z,33.65
2019-04-14T07:01:23.572Z,34.60
2019-04-14T07:03:52.463Z,32.67
2019-04-14T07:06:21.522Z,33.58
2019-04-14T07:08:50.383Z,33.80
2019-04-14T07:11:38.736Z,36.90
2019-04-14T07:14:07.523Z,35.65
2019-04-14T07:16:36.307Z,34.67
2019-04-14T07:19:05.266Z,35.40
2019-04-14T07:21:34.127Z,37.53
2019-04-14T07:24:03.090Z,35.98
2019-04-14T07:26:31.974Z,34.87
2019-04-14T07:29:00.778Z,34.48
2019-04-14T07:31:47.739Z,35.15
2019-04-14T07:34:41.746Z,33.95
2019-04-14T07:37:32.481Z,33.70
2019-04-14T07:40:20.330Z,35.23
2019-04-14T07:42:58.302Z,36.68
2019-04-14T07:45:41.206Z,33.65
2019-04-14T07:48:38.419Z,32.08
2019-04-14T07:51:35.407Z,31.62
2019-04-14T07:54:22.319Z,33.87
2019-04-14T07:57:11.397Z,32.83
2019-04-14T08:00:02.314Z,33.28
2019-04-14T08:02:44.730Z,33.63
2019-04-14T08:05:17.502Z,31.50
2019-04-14T08:07:46.702Z,31.00
2019-04-14T08:10:15.574Z,31.05
2019-04-14T08:12:44.881Z,30.72
2019-04-14T08:15:13.975Z,29.63
2019-04-14T08:17:43.691Z,31.55
2019-04-14T08:20:12.663Z,31.23
2019-04-14T08:22:41.489Z,30.05
2019-04-14T08:25:10.414Z,30.52
2019-04-14T08:27:39.210Z,30.27
2019-04-14T08:30:09.206Z,30.88
2019-04-14T08:32:38.011Z,28.95
2019-04-14T08:35:07.186Z,29.92
2019-04-14T08:37:36.002Z,30.80
2019-04-14T08:40:05.362Z,30.20
2019-04-14T08:42:51.787Z,30.73
2019-04-14T08:45:26.408Z,29.53
2019-04-14T08:48:13.195Z,29.00
2019-04-14T08:50:47.370Z,29.75
2019-04-14T08:53:29.708Z,29.23
2019-04-14T08:56:27.269Z,29.10
2019-04-14T08:59:03.544Z,28.23
2019-04-14T09:01:51.487Z,27.25
2019-04-14T09:04:35.647Z,27.93
2019-04-14T09:07:21.481Z,28.87
2019-04-14T09:09:54.902Z,28.07
2019-04-14T09:12:26.031Z,26.93
2019-04-14T09:14:57.304Z,27.02
2019-04-14T09:17:26.737Z,28.07
2019-04-14T09:19:55.782Z,29.20
2019-04-14T09:22:24.582Z,27.87
2019-04-14T09:24:53.549Z,27.77
2019-04-14T09:27:22.435Z,29.10
2019-04-14T09:29:52.378Z,26.65
2019-04-14T09:32:21.958Z,26.23
2019-04-14T09:34:50.770Z,27.80
2019-04-14T09:37:19.567Z,27.40
2019-04-14T09:39:48.379Z,27.93
2019-04-14T09:42:17.243Z,30.10
2019-04-14T09:44:46.054Z,28.52
2019-04-14T09:47:14.863Z,28.95
2019-04-14T09:49:43.843Z,28.27
2019-04-14T09:52:12.647Z,27.27
2019-04-14T09:54:41.932Z,28.07
2019-04-14T09:57:10.714Z,28.67
2019-04-14T09:59:39.527Z,26.37
2019-04-14T10:02:08.391Z,26.85
2019-04-14T10:04:37.193Z,27.57
2019-04-14T10:07:06.113Z,29.30
2019-04-14T10:09:35.166Z,26.57
2019-04-14T10:12:04.034Z,27.70
2019-04-14T10:14:32.978Z,32.08
2019-04-14T10:17:01.804Z,27.07
2019-04-14T10:19:49.930Z,28.80
2019-04-14T10:22:18.749Z,26.63
2019-04-14T10:24:47.563Z,28.85
2019-04-14T10:27:16.502Z,27.50
2019-04-14T10:29:45.344Z,26.68
2019-04-14T10:32:14.140Z,27.13
2019-04-14T10:34:42.958Z,26.90
2019-04-14T10:37:11.844Z,27.02
2019-04-14T10:39:40.971Z,27.67
2019-04-14T10:42:09.782Z,27.95
2019-04-14T10:44:38.611Z,25.37
2019-04-14T10:47:07.571Z,25.52
2019-04-14T10:49:36.515Z,24.55
2019-04-14T10:52:05.523Z,29.30
2019-04-14T10:54:34.339Z,25.75
2019-04-14T10:57:03.183Z,24.52
2019-04-14T10:59:32.015Z,25.52
2019-04-14T11:02:00.898Z,24.57
2019-04-14T11:04:29.729Z,24.07
2019-04-14T11:07:02.315Z,25.20
2019-04-14T11:09:31.618Z,24.55
2019-04-14T11:12:00.439Z,22.93
2019-04-14T11:14:29.229Z,24.60
2019-04-14T11:16:58.294Z,23.22
2019-04-14T11:19:27.099Z,21.87
2019-04-14T11:21:55.917Z,22.62
2019-04-14T11:24:24.923Z,23.85
2019-04-14T11:26:53.759Z,22.30
2019-04-14T11:29:23.206Z,22.62
2019-04-14T11:32:10.513Z,20.72
2019-04-14T11:34:58.362Z,21.77
2019-04-14T11:37:45.022Z,21.17
2019-04-14T11:40:16.454Z,21.00
2019-04-14T11:42:52.332Z,21.37
2019-04-14T11:45:16.086Z,21.80
2019-04-14T11:47:44.864Z,20.60
2019-04-14T11:50:13.845Z,20.15
2019-04-14T11:52:42.638Z,22.23
2019-04-14T11:55:11.797Z,20.43
2019-04-14T11:57:40.689Z,21.93
2019-04-14T12:00:47.020Z,21.33
2019-04-14T12:03:25.534Z,21.68
2019-04-14T12:06:08.753Z,19.77
2019-04-14T12:08:51.967Z,19.42
2019-04-14T12:11:20.730Z,21.90
2019-04-14T12:13:49.781Z,19.80
2019-04-14T12:16:18.639Z,20.20
2019-04-14T12:18:47.883Z,21.23
2019-04-14T12:21:16.994Z,21.50
2019-04-14T12:23:45.778Z,20.40
2019-04-14T12:26:14.642Z,21.07
2019-04-14T12:28:44.724Z,20.15
2019-04-14T12:31:15.172Z,20.92
2019-04-14T12:33:44.438Z,18.90
2019-04-14T12:36:13.371Z,19.70
2019-04-14T12:38:42.249Z,21.73
2019-04-14T12:41:15.689Z,20.17
2019-04-14T12:44:07.198Z,19.32
2019-04-14T12:46:58.254Z,19.27
2019-04-14T12:49:34.598Z,20.57
2019-04-14T12:52:22.009Z,19.15
2019-04-14T12:54:51.166Z,20.60
2019-04-14T12:57:34.231Z,19.95
2019-04-14T13:00:04.566Z,20.93
2019-04-14T13:02:36.326Z,19.52
2019-04-14T13:05:05.614Z,20.62
2019-04-14T13:07:36.816Z,19.27
2019-04-14T13:10:06.634Z,21.80
2019-04-14T13:12:35.490Z,19.73
2019-04-14T13:15:04.801Z,22.77
2019-04-14T13:17:33.626Z,18.98
2019-04-14T13:20:02.407Z,19.77
2019-04-14T13:22:34.276Z,20.75
2019-04-14T13:25:01.951Z,21.37
2019-04-14T13:27:30.708Z,21.60
2019-04-14T13:29:59.565Z,20.68
2019-04-14T13:32:35.695Z,20.48
2019-04-14T13:34:58.973Z,21.37
2019-04-14T13:37:27.811Z,21.87
2019-04-14T13:39:56.658Z,20.03
2019-04-14T13:42:25.758Z,21.82
2019-04-14T13:44:54.628Z,22.32
2019-04-14T13:47:23.406Z,21.60
2019-04-14T13:49:52.557Z,21.77
2019-04-14T13:52:21.495Z,21.00
2019-04-14T13:54:50.299Z,20.73
2019-04-14T13:57:19.077Z,21.57
2019-04-14T13:59:47.927Z,21.23
2019-04-14T14:02:16.987Z,20.75
2019-04-14T14:04:45.990Z,20.75
2019-04-14T14:07:15.729Z,20.20
2019-04-14T14:09:44.774Z,21.57
2019-04-14T14:12:27.854Z,20.82
2019-04-14T14:15:14.707Z,21.52
2019-04-14T14:17:49.748Z,20.75
2019-04-14T14:20:28.862Z,21.68
2019-04-14T14:23:15.384Z,20.62
2019-04-14T14:25:48.470Z,20.72
2019-04-14T14:28:17.262Z,20.20
2019-04-14T14:30:46.053Z,20.90
2019-04-14T14:33:14.846Z,20.82
2019-04-14T14:35:43.674Z,19.65
2019-04-14T14:38:12.491Z,20.70
2019-04-14T14:40:41.622Z,20.48
2019-04-14T14:43:10.395Z,20.62
2019-04-14T14:45:57.494Z,20.65
2019-04-14T14:48:29.415Z,23.62
2019-04-14T14:51:05.127Z,21.35
2019-04-14T14:53:33.901Z,21.97
2019-04-14T14:56:02.763Z,20.70
2019-04-14T14:58:31.538Z,21.30
2019-04-14T15:01:00.396Z,21.63
2019-04-14T15:03:29.238Z,19.82
2019-04-14T15:05:58.006Z,19.32
2019-04-14T15:08:26.982Z,19.60
2019-04-14T15:10:56.034Z,19.48
2019-04-14T15:13:24.802Z,20.62
2019-04-14T15:15:53.665Z,21.53
2019-04-14T15:18:22.505Z,21.23
2019-04-14T15:20:51.573Z,21.17
2019-04-14T15:23:25.206Z,21.15
2019-04-14T15:25:51.242Z,21.80
2019-04-14T15:28:20.230Z,22.07
2019-04-14T15:30:49.037Z,20.70
2019-04-14T15:33:17.854Z,21.85
2019-04-14T15:35:46.647Z,19.42
2019-04-14T15:38:15.549Z,21.20
2019-04-14T15:40:44.370Z,19.98
2019-04-14T15:43:13.150Z,20.27
2019-04-14T15:45:41.930Z,22.93
2019-04-14T15:48:10.711Z,18.42
2019-04-14T15:50:39.819Z,20.00
2019-04-14T15:53:08.716Z,20.25
2019-04-14T15:55:37.857Z,21.95
2019-04-14T15:58:28.810Z,22.58
2019-04-14T16:01:28.638Z,22.53
2019-04-14T16:04:28.725Z,21.17
2019-04-14T16:07:23.085Z,20.32
2019-04-14T16:09:57.661Z,20.40
2019-04-14T16:12:54.909Z,21.68
2019-04-14T16:15:43.106Z,20.53
2019-04-14T16:18:46.214Z,22.25
2019-04-14T16:21:15.093Z,21.70
2019-04-14T16:23:50.418Z,20.25
2019-04-14T16:26:45.954Z,21.30
2019-04-14T16:29:28.178Z,22.27
2019-04-14T16:32:15.183Z,22.17
2019-04-14T16:35:03.888Z,22.77
2019-04-14T16:37:32.790Z,21.97
2019-04-14T16:40:02.809Z,21.87
2019-04-14T16:42:31.617Z,20.75
2019-04-14T16:45:00.586Z,21.62
2019-04-14T16:47:29.369Z,22.00
2019-04-14T16:49:58.246Z,20.40
2019-04-14T16:52:55.364Z,20.60
2019-04-14T16:55:35.614Z,21.82
2019-04-14T16:58:16.669Z,22.52
2019-04-14T17:00:49.107Z,21.15
2019-04-14T17:03:17.982Z,22.42
2019-04-14T17:05:46.882Z,21.70
2019-04-14T17:08:15.838Z,21.42
2019-04-14T17:10:44.674Z,20.92
2019-04-14T17:13:13.447Z,22.30
2019-04-14T17:16:17.715Z,21.48
2019-04-14T17:18:53.922Z,22.00
2019-04-14T17:21:33.131Z,20.48
2019-04-14T17:24:16.092Z,22.13
2019-04-14T17:26:48.639Z,22.73
2019-04-14T17:29:25.513Z,19.82
2019-04-14T17:32:19.270Z,21.87
2019-04-14T17:35:01.947Z,21.35
2019-04-14T17:37:41.663Z,21.33
2019-04-14T17:40:33.198Z,21.90
2019-04-14T17:43:20.112Z,21.85
2019-04-14T17:46:07.004Z,21.67
2019-04-14T17:48:53.773Z,21.35
2019-04-14T17:51:47.806Z,21.85
2019-04-14T17:54:34.119Z,22.32
2019-04-14T17:57:25.256Z,21.02
2019-04-14T18:00:21.805Z,22.45
2019-04-14T18:02:56.904Z,21.07
2019-04-14T18:05:31.554Z,21.87
2019-04-14T18:08:07.384Z,21.87
2019-04-14T18:11:01.664Z,20.97
2019-04-14T18:13:44.690Z,21.05
2019-04-14T18:16:27.418Z,21.45
2019-04-14T18:19:06.843Z,21.23
2019-04-14T18:21:38.834Z,21.82
2019-04-14T18:24:07.884Z,19.85
2019-04-14T18:26:36.775Z,19.90
2019-04-14T18:29:24.841Z,20.93
2019-04-14T18:32:07.820Z,18.65
2019-04-14T18:34:54.402Z,19.32
2019-04-14T18:37:37.690Z,19.42
2019-04-14T18:40:12.843Z,19.40
2019-04-14T18:43:06.902Z,19.62
2019-04-14T18:45:54.863Z,18.65
2019-04-14T18:48:41.664Z,19.17
2019-04-14T18:51:29.548Z,19.32
2019-04-14T18:54:23.779Z,18.98
2019-04-14T18:57:21.127Z,18.52
2019-04-14T19:00:10.699Z,18.62
2019-04-14T19:02:40.157Z,18.87
2019-04-14T19:05:09.079Z,19.00
2019-04-14T19:07:37.963Z,18.07
2019-04-14T19:10:07.517Z,18.05
2019-04-14T19:13:09.212Z,17.90
2019-04-14T19:15:48.566Z,18.12
2019-04-14T19:18:46.162Z,18.75
2019-04-14T19:21:20.469Z,19.07
2019-04-14T19:23:49.554Z,18.52
2019-04-14T19:26:18.334Z,17.83
2019-04-14T19:28:47.218Z,18.05
2019-04-14T19:31:16.129Z,19.20
2019-04-14T19:33:45.233Z,17.92
2019-04-14T19:36:14.048Z,18.37
2019-04-14T19:38:42.998Z,18.42
2019-04-14T19:41:11.771Z,18.85
2019-04-14T19:43:40.698Z,18.50
2019-04-14T19:46:09.630Z,18.25
2019-04-14T19:48:38.451Z,19.55
2019-04-14T19:51:07.235Z,18.60
2019-04-14T19:53:36.102Z,19.90
2019-04-14T19:56:05.131Z,18.10
2019-04-14T19:58:33.895Z,18.92
2019-04-14T20:01:03.355Z,19.17
2019-04-14T20:03:34.270Z,18.37
2019-04-14T20:06:03.098Z,19.20
2019-04-14T20:08:32.083Z,17.60
2019-04-14T20:11:01.227Z,19.05
2019-04-14T20:13:34.555Z,18.40
2019-04-14T20:16:21.387Z,19.15
2019-04-14T20:19:10.730Z,19.13
2019-04-14T20:21:57.767Z,18.42
2019-04-14T20:24:40.355Z,18.52
2019-04-14T20:27:34.339Z,18.62
2019-04-14T20:30:08.119Z,18.30
2019-04-14T20:32:38.734Z,19.00
2019-04-14T20:35:08.126Z,18.82
2019-04-14T20:37:37.016Z,19.32
2019-04-14T20:40:07.054Z,19.45
2019-04-14T20:42:35.959Z,21.13
2019-04-14T20:45:06.331Z,19.10
2019-04-14T20:47:35.212Z,19.70
2019-04-14T20:50:05.065Z,21.40
2019-04-14T20:52:33.921Z,18.30
2019-04-14T20:55:03.492Z,19.48
2019-04-14T20:57:35.162Z,19.70
2019-04-14T21:00:04.725Z,19.90
2019-04-14T21:02:52.805Z,20.70
2019-04-14T21:05:51.485Z,21.87
2019-04-14T21:08:46.219Z,21.30
2019-04-14T21:11:19.130Z,19.98
2019-04-14T21:14:04.894Z,23.02
2019-04-14T21:16:41.109Z,21.97
2019-04-14T21:19:24.456Z,21.95
2019-04-14T21:22:21.382Z,20.67
2019-04-14T21:25:09.714Z,22.05
2019-04-14T21:27:56.663Z,21.77
2019-04-14T21:30:44.686Z,22.32
2019-04-14T21:33:34.008Z,22.02
2019-04-14T21:36:13.690Z,21.10
2019-04-14T21:38:51.540Z,22.20
2019-04-14T21:41:23.831Z,22.07
2019-04-14T21:43:52.792Z,21.97
2019-04-14T21:46:21.647Z,23.12
2019-04-14T21:48:50.639Z,23.52
2019-04-14T21:51:19.590Z,24.67
2019-04-14T21:53:48.799Z,25.37
2019-04-14T21:56:17.686Z,25.40
2019-04-14T21:59:08.426Z,25.02
2019-04-14T22:01:55.685Z,24.95
2019-04-14T22:04:45.911Z,25.65
2019-04-14T22:07:39.862Z,24.85
2019-04-14T22:10:22.207Z,26.77
2019-04-14T22:12:51.015Z,27.55
2019-04-14T22:15:19.949Z,27.67
2019-04-14T22:17:48.886Z,27.60
2019-04-14T22:20:17.930Z,27.35
2019-04-14T22:22:46.714Z,28.80
2019-04-14T22:25:15.734Z,29.35
2019-04-14T22:27:44.694Z,27.07
2019-04-14T22:30:14.180Z,28.70
2019-04-14T22:32:43.055Z,28.67
2019-04-14T22:35:12.013Z,29.50
2019-04-14T22:37:40.791Z,29.27
2019-04-14T22:40:09.754Z,29.07
2019-04-14T22:42:38.643Z,29.80
2019-04-14T22:45:08.073Z,29.98
2019-04-14T22:47:37.530Z,30.97
2019-04-14T22:50:07.029Z,30.37
2019-04-14T22:52:36.070Z,31.12
2019-04-14T22:55:05.865Z,30.25
2019-04-14T22:57:34.683Z,31.00
2019-04-14T23:00:04.862Z,30.05
2019-04-14T23:02:54.182Z,30.30
2019-04-14T23:05:32.821Z,31.00
2019-04-14T23:08:16.738Z,29.90
2019-04-14T23:11:06.631Z,33.25
2019-04-14T23:13:44.407Z,31.95
2019-04-14T23:16:32.419Z,30.60
2019-04-14T23:19:05.658Z,32.17
2019-04-14T23:21:38.526Z,33.05
2019-04-14T23:24:13.686Z,32.53
2019-04-14T23:26:52.444Z,32.63
2019-04-14T23:29:13.262Z,31.77
2019-04-14T23:31:42.064Z,32.63
2019-04-14T23:34:11.580Z,31.10
2019-04-14T23:36:40.433Z,31.82
2019-04-14T23:39:11.938Z,32.00
2019-04-14T23:41:40.790Z,30.68
2019-04-14T23:44:09.710Z,32.83
2019-04-14T23:46:38.606Z,33.60
2019-04-14T23:49:07.535Z,31.50
2019-04-14T23:51:36.332Z,32.28
2019-04-14T23:54:05.262Z,33.30
2019-04-14T23:56:34.179Z,32.93
2019-04-14T23:59:02.955Z,35.98
